createdAt,value
2023-02-15T00:04:57.757Z,27.93
2023-02-15T00:10:02.514Z,22.43
2023-02-15T00:15:07.264Z,26.10
2023-02-15T00:20:12.040Z,25.60
2023-02-15T00:25:17.140Z,25.10
2023-02-15T00:30:20.793Z,28.43
2023-02-15T00:35:24.425Z,24.83
2023-02-15T00:40:30.169Z,24.80
2023-02-15T00:45:33.932Z,23.20
2023-02-15T00:50:37.238Z,29.73
2023-02-15T00:55:42.342Z,24.27
2023-02-15T01:00:47.693Z,24.33
2023-02-15T01:05:51.949Z,30.50
2023-02-15T01:10:58.504Z,28.93
2023-02-15T01:16:02.754Z,26.63
2023-02-15T01:21:14.819Z,26.90
2023-02-15T01:26:22.220Z,26.57
2023-02-15T01:31:25.596Z,26.17
2023-02-15T01:36:29.481Z,24.83
2023-02-15T01:41:34.303Z,27.70
2023-02-15T01:46:42.846Z,24.77
2023-02-15T01:51:49.745Z,23.83
2023-02-15T01:56:57.752Z,23.20
2023-02-15T02:02:03.742Z,24.77
2023-02-15T02:07:08.742Z,21.97
2023-02-15T02:12:14.429Z,22.70
2023-02-15T02:17:23.168Z,24.27
2023-02-15T02:23:22.073Z,21.20
2023-02-15T02:28:54.855Z,25.37
2023-02-15T02:34:07.833Z,21.27
2023-02-15T02:39:26.568Z,19.17
2023-02-15T02:44:36.387Z,24.47
2023-02-15T02:49:43.268Z,22.87
2023-02-15T02:54:47.387Z,22.23
2023-02-15T02:59:53.497Z,20.63
2023-02-15T03:05:04.752Z,26.80
2023-02-15T03:10:10.621Z,22.97
2023-02-15T03:15:21.980Z,21.47
2023-02-15T03:20:32.421Z,22.30
2023-02-15T03:25:42.019Z,23.43
2023-02-15T03:30:51.592Z,22.80
2023-02-15T03:36:04.246Z,26.10
2023-02-15T03:41:13.072Z,21.93
2023-02-15T03:46:24.615Z,23.77
2023-02-15T03:51:37.516Z,22.13
2023-02-15T03:57:03.905Z,21.37
2023-02-15T04:02:17.945Z,20.43
2023-02-15T04:07:22.998Z,21.57
2023-02-15T04:12:26.420Z,22.83
2023-02-15T04:17:30.596Z,20.00
2023-02-15T04:22:52.724Z,19.30
2023-02-15T04:27:57.007Z,20.93
2023-02-15T04:33:00.398Z,22.30
2023-02-15T04:38:05.176Z,20.60
2023-02-15T04:43:08.885Z,23.40
2023-02-15T04:48:12.271Z,23.07
2023-02-15T04:53:21.305Z,23.47
2023-02-15T04:58:24.678Z,21.53
2023-02-15T05:03:28.061Z,23.30
2023-02-15T05:08:33.877Z,24.40
2023-02-15T05:13:37.284Z,23.73
2023-02-15T05:18:40.765Z,21.10
2023-02-15T05:23:45.529Z,21.80
2023-02-15T05:28:49.189Z,22.70
2023-02-15T05:33:52.624Z,21.53
2023-02-15T05:38:57.500Z,23.47
2023-02-15T05:44:00.969Z,22.77
2023-02-15T05:49:04.862Z,21.97
2023-02-15T05:54:10.021Z,21.70
2023-02-15T05:59:13.801Z,30.00
2023-02-15T06:04:17.185Z,24.43
2023-02-15T06:09:22.011Z,24.73
2023-02-15T06:14:25.482Z,24.07
2023-02-15T06:19:28.938Z,25.80
2023-02-15T06:24:33.958Z,23.07
2023-02-15T06:29:37.714Z,22.77
2023-02-15T06:34:41.382Z,21.40
2023-02-15T06:39:46.377Z,19.27
2023-02-15T06:44:49.811Z,21.37
2023-02-15T06:49:53.215Z,22.10
2023-02-15T06:54:58.012Z,21.33
2023-02-15T07:00:01.418Z,19.30
2023-02-15T07:05:07.899Z,21.57
2023-02-15T07:10:13.137Z,21.03
2023-02-15T07:15:18.957Z,23.63
2023-02-15T07:20:24.659Z,21.33
2023-02-15T07:25:29.698Z,22.73
2023-02-15T07:30:33.181Z,27.00
2023-02-15T07:35:37.107Z,25.37
2023-02-15T07:40:41.893Z,19.40
2023-02-15T07:45:46.134Z,18.03
2023-02-15T07:50:49.509Z,17.87
2023-02-15T07:55:54.560Z,20.43
2023-02-15T08:01:02.824Z,25.37
2023-02-15T08:06:07.178Z,23.37
2023-02-15T08:11:37.558Z,17.47
2023-02-15T08:16:42.664Z,19.60
2023-02-15T08:21:48.212Z,21.33
2023-02-15T08:26:54.246Z,18.43
2023-02-15T08:32:03.307Z,16.03
2023-02-15T08:37:07.578Z,19.50
2023-02-15T08:42:12.314Z,14.93
2023-02-15T08:47:15.692Z,18.70
2023-02-15T08:52:19.198Z,17.03
2023-02-15T08:57:23.991Z,16.77
2023-02-15T09:02:27.404Z,13.93
2023-02-15T09:07:31.219Z,15.97
2023-02-15T09:12:36.040Z,17.37
2023-02-15T09:17:39.507Z,17.00
2023-02-15T09:22:42.900Z,16.20
2023-02-15T09:27:47.744Z,17.30
2023-02-15T09:32:51.133Z,23.97
2023-02-15T09:37:54.520Z,16.90
2023-02-15T09:43:19.053Z,17.93
2023-02-15T09:48:43.942Z,16.50
2023-02-15T09:54:03.536Z,18.33
2023-02-15T09:59:18.954Z,18.83
2023-02-15T10:04:45.741Z,27.40
2023-02-15T10:10:00.866Z,23.13
2023-02-15T10:15:21.629Z,19.20
2023-02-15T10:20:35.406Z,22.80
2023-02-15T10:25:45.870Z,16.33
2023-02-15T10:30:52.869Z,17.43
2023-02-15T10:36:07.187Z,19.07
2023-02-15T10:41:20.108Z,19.13
2023-02-15T10:46:45.628Z,19.00
2023-02-15T10:51:58.516Z,18.57
2023-02-15T10:57:07.218Z,17.67
2023-02-15T11:02:22.971Z,18.20
2023-02-15T11:07:30.131Z,17.03
2023-02-15T11:12:35.492Z,17.97
2023-02-15T11:17:45.835Z,16.10
2023-02-15T11:22:52.156Z,17.17
2023-02-15T11:27:57.719Z,20.10
2023-02-15T11:33:07.730Z,17.37
2023-02-15T11:38:19.716Z,14.93
2023-02-15T11:43:27.203Z,19.87
2023-02-15T11:48:33.610Z,18.43
2023-02-15T11:53:40.563Z,19.87
2023-02-15T11:58:48.250Z,17.83
2023-02-15T12:11:09.120Z,17.40
2023-02-15T12:16:14.903Z,19.60
2023-02-15T12:21:28.499Z,20.73
2023-02-15T12:26:36.205Z,22.13
2023-02-15T12:31:44.118Z,22.20
2023-02-15T12:36:55.469Z,21.77
2023-02-15T12:42:07.581Z,24.43
2023-02-15T12:47:21.689Z,26.30
2023-02-15T12:52:27.612Z,28.87
2023-02-15T12:57:34.580Z,26.53
2023-02-15T13:02:44.303Z,27.30
2023-02-15T13:07:52.042Z,25.83
2023-02-15T13:12:58.994Z,26.27
2023-02-15T13:18:04.512Z,26.07
2023-02-15T13:23:15.777Z,22.13
2023-02-15T13:28:25.421Z,26.07
2023-02-15T13:33:34.981Z,22.67
2023-02-15T13:38:54.502Z,24.93
2023-02-15T13:44:08.331Z,22.57
2023-02-15T13:49:21.045Z,21.43
2023-02-15T13:54:56.193Z,20.73
2023-02-15T14:00:12.122Z,21.10
2023-02-15T14:05:33.405Z,22.87
2023-02-15T14:10:57.637Z,23.43
2023-02-15T14:16:05.615Z,21.77
2023-02-15T14:21:13.872Z,24.57
2023-02-15T14:26:25.070Z,22.50
2023-02-15T14:31:33.236Z,22.43
2023-02-15T14:36:37.197Z,23.80
2023-02-15T14:41:50.493Z,24.60
2023-02-15T14:47:00.252Z,23.03
2023-02-15T14:52:08.255Z,25.33
2023-02-15T14:57:27.586Z,18.90
2023-02-15T15:02:43.067Z,19.27
2023-02-15T15:07:49.897Z,19.97
2023-02-15T15:12:55.612Z,22.73
2023-02-15T15:18:01.751Z,21.30
2023-02-15T15:23:42.530Z,17.07
2023-02-15T15:29:03.939Z,21.00
2023-02-15T15:34:46.934Z,24.33
2023-02-15T15:40:32.615Z,30.03
2023-02-15T15:46:07.373Z,43.83
2023-02-15T15:51:20.396Z,68.50
2023-02-15T15:56:29.092Z,58.73
2023-02-15T16:01:42.891Z,38.07
2023-02-15T16:06:47.167Z,28.97
2023-02-15T16:11:52.853Z,28.63
2023-02-15T16:17:00.511Z,21.10
2023-02-15T16:22:05.493Z,21.47
2023-02-15T16:27:26.991Z,34.00
2023-02-15T16:32:32.627Z,35.40
2023-02-15T16:37:37.451Z,30.77
2023-02-15T16:42:41.014Z,32.53
2023-02-15T16:47:48.669Z,25.37
2023-02-15T16:52:53.347Z,22.20
2023-02-15T16:58:00.101Z,25.20
2023-02-15T17:03:07.635Z,22.93
2023-02-15T17:08:20.526Z,24.40
2023-02-15T17:13:23.945Z,22.73
2023-02-15T17:18:31.483Z,20.53
2023-02-15T17:23:38.128Z,24.67
2023-02-15T17:28:49.371Z,28.40
2023-02-15T17:33:56.833Z,26.83
2023-02-15T17:39:07.587Z,20.37
2023-02-15T17:44:15.080Z,22.53
2023-02-15T17:49:26.150Z,21.70
2023-02-15T17:54:46.714Z,22.83
2023-02-15T18:00:07.508Z,27.27
2023-02-15T18:05:35.520Z,25.07
2023-02-15T18:11:00.182Z,25.80
2023-02-15T18:16:03.731Z,24.93
2023-02-15T18:21:12.119Z,23.80
2023-02-15T18:26:20.945Z,25.67
2023-02-15T18:31:25.505Z,24.17
2023-02-15T18:36:33.827Z,22.43
2023-02-15T18:41:37.223Z,26.67
2023-02-15T18:46:40.625Z,28.40
2023-02-15T18:51:52.439Z,29.03
2023-02-15T18:56:57.902Z,32.33
2023-02-15T19:02:01.812Z,28.17
2023-02-15T19:07:07.407Z,27.10
2023-02-15T19:12:14.566Z,31.67
2023-02-15T19:17:20.494Z,27.23
2023-02-15T19:22:28.443Z,27.27
2023-02-15T19:27:35.115Z,31.23
2023-02-15T19:32:39.133Z,26.97
2023-02-15T19:37:49.939Z,22.70
2023-02-15T19:42:53.956Z,28.63
2023-02-15T19:47:57.902Z,23.80
2023-02-15T19:53:03.405Z,23.83
2023-02-15T19:58:13.953Z,25.47
2023-02-15T20:03:17.821Z,23.80
2023-02-15T20:08:24.344Z,22.57
2023-02-15T20:13:29.261Z,19.87
2023-02-15T20:18:32.671Z,20.07
2023-02-15T20:23:38.123Z,18.03
2023-02-15T20:28:41.568Z,16.73
2023-02-15T20:33:45.009Z,17.60
2023-02-15T20:38:50.742Z,17.23
2023-02-15T20:43:54.098Z,15.07
2023-02-15T20:48:57.697Z,20.17
2023-02-15T20:54:02.549Z,16.83
2023-02-15T20:59:18.308Z,15.10
2023-02-15T21:04:26.453Z,16.37
2023-02-15T21:09:31.722Z,18.67
2023-02-15T21:14:36.249Z,19.33
2023-02-15T21:19:41.144Z,19.20
2023-02-15T21:24:51.875Z,21.50
2023-02-15T21:29:55.244Z,18.40
2023-02-15T21:34:58.653Z,19.40
2023-02-15T21:40:05.933Z,23.60
2023-02-15T21:45:33.224Z,24.10
2023-02-15T21:50:55.136Z,22.53
2023-02-15T21:56:03.395Z,24.60
2023-02-15T22:01:07.734Z,22.70
2023-02-15T22:06:15.097Z,20.63
2023-02-15T22:11:22.877Z,24.17
2023-02-15T22:16:26.575Z,26.83
2023-02-15T22:21:32.448Z,26.27
2023-02-15T22:26:37.206Z,26.93
2023-02-15T22:31:41.129Z,24.70
2023-02-15T22:36:44.667Z,24.03
2023-02-15T22:41:50.089Z,21.73
2023-02-15T22:46:53.794Z,22.53
2023-02-15T22:51:57.330Z,19.63
2023-02-15T22:57:02.044Z,21.57
2023-02-15T23:02:07.676Z,20.70
2023-02-15T23:07:23.172Z,23.27
2023-02-15T23:12:50.244Z,19.47
2023-02-15T23:17:54.148Z,23.40
2023-02-15T23:22:57.496Z,24.97
2023-02-15T23:28:02.514Z,23.57
2023-02-15T23:33:07.849Z,22.63
2023-02-15T23:38:20.434Z,20.10
2023-02-15T23:43:25.481Z,23.03
2023-02-15T23:48:35.499Z,19.13
2023-02-15T23:53:38.908Z,18.23
2023-02-15T23:58:45.915Z,18.00
